EWG35M EDHL-EDDP
Flight info
| Callsign | EWG35M |
|---|---|
| Flight time | 0h 32m |
| Altitude | 27000 |
| Route | RAMAR2A/07 RAMAR Z998 BIRMO M736 MAG/N0436F280 Z20 KENIG/N0404F230 T959 KOJEC KOJEC1R |
| Aircraft | A20N/M-SDE2E3FGHIRWXY/LB1 |
Departure
| Time | 2026-05-08 05:46 |
|---|---|
| Airport | Lübeck Blankensee Airport (EDHL) |
Arrival
| Time | 2026-05-08 06:18 |
|---|---|
| Airport | Leipzig/Halle Airport (EDDP) |
| Time | Latitude | Longitude | Altitude | Speed | Heading |
|---|---|---|---|---|---|
| 2026-05-08 05:34 | 53.80460 | 10.70255 | 56 ft | 0 kts | 326° |
| 2026-05-08 05:42 | 53.80450 | 10.70267 | 53 ft | 2 kts | 324° |
| 2026-05-08 05:42 | 53.80437 | 10.70284 | 53 ft | 2 kts | 320° |
| 2026-05-08 05:42 | 53.80425 | 10.70304 | 53 ft | 2 kts | 298° |
| 2026-05-08 05:43 | 53.80423 | 10.70329 | 56 ft | 1 kts | 255° |
| 2026-05-08 05:43 | 53.80424 | 10.70336 | 55 ft | 0 kts | 253° |
| 2026-05-08 05:43 | 53.80424 | 10.70335 | 55 ft | 0 kts | 253° |
| 2026-05-08 05:44 | 53.80411 | 10.70258 | 55 ft | 15 kts | 253° |
| 2026-05-08 05:44 | 53.80381 | 10.70136 | 57 ft | 5 kts | 223° |
| 2026-05-08 05:44 | 53.80361 | 10.70126 | 62 ft | 0 kts | 182° |
| 2026-05-08 05:45 | 53.80345 | 10.70127 | 63 ft | 13 kts | 177° |
| 2026-05-08 05:45 | 53.80219 | 10.70180 | 61 ft | 10 kts | 132° |
| 2026-05-08 05:45 | 53.80224 | 10.70313 | 59 ft | 24 kts | 71° |
| 2026-05-08 05:45 | 53.80362 | 10.71037 | 60 ft | 107 kts | 72° |
| 2026-05-08 05:46 | 53.80676 | 10.72617 | 301 ft | 158 kts | 72° |
| 2026-05-08 05:46 | 53.81015 | 10.74415 | 1122 ft | 165 kts | 73° |
| 2026-05-08 05:46 | 53.81384 | 10.76284 | 2097 ft | 171 kts | 72° |
| 2026-05-08 05:46 | 53.81804 | 10.78258 | 3022 ft | 186 kts | 71° |
| 2026-05-08 05:47 | 53.82294 | 10.80358 | 3974 ft | 198 kts | 69° |
| 2026-05-08 05:47 | 53.82841 | 10.82629 | 4771 ft | 219 kts | 69° |
| 2026-05-08 05:47 | 53.83413 | 10.85149 | 5499 ft | 237 kts | 72° |
| 2026-05-08 05:47 | 53.83592 | 10.87968 | 6382 ft | 248 kts | 96° |
| 2026-05-08 05:48 | 53.83054 | 10.90788 | 7302 ft | 259 kts | 118° |
| 2026-05-08 05:48 | 53.81871 | 10.93136 | 8269 ft | 269 kts | 139° |
| 2026-05-08 05:48 | 53.80358 | 10.95081 | 9296 ft | 276 kts | 145° |
| 2026-05-08 05:48 | 53.78616 | 10.96433 | 10290 ft | 283 kts | 166° |
| 2026-05-08 05:49 | 53.76616 | 10.96741 | 10926 ft | 304 kts | 184° |
| 2026-05-08 05:49 | 53.74431 | 10.96226 | 11332 ft | 330 kts | 189° |
| 2026-05-08 05:49 | 53.72087 | 10.95661 | 11844 ft | 348 kts | 186° |
| 2026-05-08 05:49 | 53.69661 | 10.94980 | 12633 ft | 357 kts | 187° |
| 2026-05-08 05:50 | 53.67217 | 10.95518 | 13501 ft | 362 kts | 152° |
| 2026-05-08 05:50 | 53.65259 | 10.98112 | 14328 ft | 366 kts | 134° |
| 2026-05-08 05:50 | 53.63531 | 11.01301 | 15105 ft | 370 kts | 131° |
| 2026-05-08 05:50 | 53.61761 | 11.04487 | 15851 ft | 375 kts | 135° |
| 2026-05-08 05:51 | 53.59825 | 11.07471 | 16577 ft | 380 kts | 140° |
| 2026-05-08 05:51 | 53.57719 | 11.10215 | 17294 ft | 384 kts | 144° |
| 2026-05-08 05:51 | 53.55492 | 11.12754 | 17988 ft | 389 kts | 148° |
| 2026-05-08 05:51 | 53.53183 | 11.15168 | 18641 ft | 393 kts | 149° |
| 2026-05-08 05:52 | 53.50850 | 11.17505 | 19208 ft | 397 kts | 150° |
| 2026-05-08 05:52 | 53.48451 | 11.19871 | 19799 ft | 401 kts | 150° |
| 2026-05-08 05:52 | 53.46035 | 11.22258 | 20390 ft | 404 kts | 150° |
| 2026-05-08 05:52 | 53.43595 | 11.24681 | 20958 ft | 408 kts | 150° |
| 2026-05-08 05:53 | 53.41209 | 11.27178 | 21518 ft | 412 kts | 147° |
| 2026-05-08 05:53 | 53.38856 | 11.29960 | 22055 ft | 415 kts | 146° |
| 2026-05-08 05:53 | 53.36469 | 11.32723 | 22571 ft | 418 kts | 148° |
| 2026-05-08 05:53 | 53.34024 | 11.35394 | 23072 ft | 421 kts | 148° |
| 2026-05-08 05:54 | 53.31473 | 11.37840 | 23529 ft | 423 kts | 155° |
| 2026-05-08 05:54 | 53.28743 | 11.39710 | 23922 ft | 425 kts | 163° |
| 2026-05-08 05:54 | 53.25870 | 11.40969 | 24306 ft | 426 kts | 171° |
| 2026-05-08 05:54 | 53.22919 | 11.41595 | 24685 ft | 427 kts | 178° |
| 2026-05-08 05:55 | 53.19973 | 11.41593 | 25051 ft | 428 kts | 185° |
| 2026-05-08 05:55 | 53.16991 | 11.41298 | 25412 ft | 430 kts | 184° |
| 2026-05-08 05:55 | 53.13984 | 11.41124 | 25779 ft | 432 kts | 182° |
| 2026-05-08 05:55 | 53.10960 | 11.41101 | 26116 ft | 435 kts | 181° |
| 2026-05-08 05:56 | 53.07961 | 11.41182 | 26431 ft | 437 kts | 180° |
| 2026-05-08 05:56 | 53.04912 | 11.41325 | 26742 ft | 439 kts | 180° |
| 2026-05-08 05:56 | 53.01847 | 11.41503 | 27041 ft | 441 kts | 179° |
| 2026-05-08 05:56 | 52.98768 | 11.41700 | 27168 ft | 443 kts | 179° |
| 2026-05-08 05:57 | 52.95690 | 11.41908 | 27170 ft | 443 kts | 179° |
| 2026-05-08 05:57 | 52.92595 | 11.42121 | 27170 ft | 443 kts | 179° |
| 2026-05-08 05:57 | 52.89548 | 11.42333 | 27172 ft | 446 kts | 179° |
| 2026-05-08 05:57 | 52.86412 | 11.42561 | 27172 ft | 454 kts | 179° |
| 2026-05-08 05:58 | 52.83219 | 11.42810 | 27172 ft | 462 kts | 179° |
| 2026-05-08 05:58 | 52.79974 | 11.43075 | 27171 ft | 469 kts | 179° |
| 2026-05-08 05:58 | 52.76701 | 11.43346 | 27168 ft | 471 kts | 179° |
| 2026-05-08 05:58 | 52.73428 | 11.43608 | 27044 ft | 471 kts | 179° |
| 2026-05-08 05:59 | 52.70200 | 11.43856 | 26623 ft | 468 kts | 179° |
| 2026-05-08 05:59 | 52.66951 | 11.44097 | 26107 ft | 466 kts | 179° |
| 2026-05-08 05:59 | 52.63718 | 11.44335 | 25605 ft | 464 kts | 179° |
| 2026-05-08 05:59 | 52.60497 | 11.44568 | 25121 ft | 461 kts | 179° |
| 2026-05-08 06:00 | 52.57302 | 11.44795 | 24622 ft | 457 kts | 179° |
| 2026-05-08 06:00 | 52.54131 | 11.45019 | 24143 ft | 454 kts | 179° |
| 2026-05-08 06:00 | 52.50978 | 11.45238 | 23660 ft | 451 kts | 179° |
| 2026-05-08 06:00 | 52.47840 | 11.45456 | 23098 ft | 448 kts | 179° |
| 2026-05-08 06:01 | 52.44732 | 11.45671 | 22549 ft | 445 kts | 179° |
| 2026-05-08 06:01 | 52.41648 | 11.45884 | 22012 ft | 442 kts | 179° |
| 2026-05-08 06:01 | 52.39623 | 11.46023 | 21645 ft | 440 kts | 179° |
| 2026-05-08 06:01 | 52.37755 | 11.46152 | 21343 ft | 438 kts | 179° |
| 2026-05-08 06:02 | 52.34712 | 11.46361 | 20819 ft | 434 kts | 179° |
| 2026-05-08 06:02 | 52.31693 | 11.46567 | 20312 ft | 431 kts | 179° |
| 2026-05-08 06:02 | 52.28700 | 11.46772 | 19814 ft | 428 kts | 179° |
| 2026-05-08 06:02 | 52.25728 | 11.46974 | 19323 ft | 426 kts | 179° |
| 2026-05-08 06:03 | 52.22813 | 11.47172 | 18847 ft | 423 kts | 179° |
| 2026-05-08 06:03 | 52.19869 | 11.47372 | 18350 ft | 420 kts | 179° |
| 2026-05-08 06:03 | 52.16957 | 11.47569 | 17804 ft | 418 kts | 179° |
| 2026-05-08 06:03 | 52.15031 | 11.47700 | 17448 ft | 416 kts | 179° |
| 2026-05-08 06:04 | 52.12146 | 11.47896 | 16917 ft | 413 kts | 179° |
| 2026-05-08 06:04 | 52.09284 | 11.48090 | 16398 ft | 411 kts | 179° |
| 2026-05-08 06:04 | 52.06440 | 11.48282 | 15883 ft | 408 kts | 179° |
| 2026-05-08 06:04 | 52.03609 | 11.48473 | 15381 ft | 406 kts | 179° |
| 2026-05-08 06:05 | 52.00798 | 11.48662 | 14892 ft | 403 kts | 179° |
| 2026-05-08 06:05 | 51.97094 | 11.48911 | 14250 ft | 400 kts | 179° |
| 2026-05-08 06:05 | 51.95212 | 11.49038 | 13921 ft | 399 kts | 179° |
| 2026-05-08 06:05 | 51.92479 | 11.49222 | 13378 ft | 396 kts | 179° |
| 2026-05-08 06:06 | 51.89732 | 11.49409 | 12852 ft | 393 kts | 178° |
| 2026-05-08 06:06 | 51.88678 | 11.49480 | 12649 ft | 392 kts | 178° |
| 2026-05-08 06:06 | 51.86227 | 11.49645 | 12180 ft | 389 kts | 178° |
| 2026-05-08 06:06 | 51.83528 | 11.49827 | 11674 ft | 386 kts | 178° |
| 2026-05-08 06:07 | 51.80845 | 11.50005 | 11274 ft | 385 kts | 178° |
| 2026-05-08 06:07 | 51.78172 | 11.50182 | 11159 ft | 378 kts | 178° |
| 2026-05-08 06:07 | 51.75644 | 11.50324 | 11044 ft | 351 kts | 179° |
| 2026-05-08 06:07 | 51.73238 | 11.50404 | 10652 ft | 342 kts | 179° |
| 2026-05-08 06:08 | 51.70826 | 11.50486 | 10184 ft | 349 kts | 178° |
| 2026-05-08 06:08 | 51.68421 | 11.50612 | 9683 ft | 349 kts | 178° |
| 2026-05-08 06:08 | 51.65995 | 11.50764 | 9138 ft | 347 kts | 177° |
| 2026-05-08 06:08 | 51.63589 | 11.50927 | 8622 ft | 343 kts | 177° |
| 2026-05-08 06:09 | 51.61213 | 11.51089 | 8103 ft | 340 kts | 177° |
| 2026-05-08 06:09 | 51.58840 | 11.51248 | 7598 ft | 343 kts | 176° |
| 2026-05-08 06:09 | 51.56436 | 11.51431 | 7107 ft | 348 kts | 176° |
| 2026-05-08 06:09 | 51.54076 | 11.51613 | 6609 ft | 330 kts | 176° |
| 2026-05-08 06:10 | 51.51838 | 11.51731 | 6178 ft | 312 kts | 179° |
| 2026-05-08 06:10 | 51.49751 | 11.52093 | 5768 ft | 294 kts | 156° |
| 2026-05-08 06:10 | 51.48407 | 11.54289 | 5291 ft | 277 kts | 107° |
| 2026-05-08 06:10 | 51.48479 | 11.57284 | 4780 ft | 268 kts | 75° |
| 2026-05-08 06:11 | 51.48880 | 11.60179 | 4270 ft | 264 kts | 85° |
| 2026-05-08 06:11 | 51.48894 | 11.63082 | 3758 ft | 262 kts | 93° |
| 2026-05-08 06:11 | 51.48683 | 11.65985 | 3252 ft | 261 kts | 98° |
| 2026-05-08 06:11 | 51.48341 | 11.68783 | 2995 ft | 247 kts | 102° |
| 2026-05-08 06:12 | 51.47940 | 11.71355 | 2965 ft | 227 kts | 104° |
| 2026-05-08 06:12 | 51.47522 | 11.73756 | 2976 ft | 221 kts | 104° |
| 2026-05-08 06:12 | 51.47113 | 11.76143 | 2979 ft | 222 kts | 105° |
| 2026-05-08 06:12 | 51.46668 | 11.78493 | 3005 ft | 219 kts | 106° |
| 2026-05-08 06:13 | 51.46212 | 11.80813 | 2983 ft | 221 kts | 107° |
| 2026-05-08 06:13 | 51.45747 | 11.83167 | 2978 ft | 221 kts | 107° |
| 2026-05-08 06:13 | 51.45282 | 11.85530 | 2977 ft | 222 kts | 107° |
| 2026-05-08 06:13 | 51.44818 | 11.87888 | 2977 ft | 222 kts | 107° |
| 2026-05-08 06:14 | 51.44349 | 11.90273 | 2967 ft | 235 kts | 107° |
| 2026-05-08 06:14 | 51.43853 | 11.92934 | 2971 ft | 257 kts | 105° |
| 2026-05-08 06:14 | 51.43390 | 11.95602 | 2965 ft | 241 kts | 104° |
| 2026-05-08 06:14 | 51.42932 | 11.98062 | 2965 ft | 219 kts | 107° |
| 2026-05-08 06:15 | 51.42466 | 12.00237 | 2985 ft | 195 kts | 107° |
| 2026-05-08 06:15 | 51.42301 | 12.02283 | 2919 ft | 180 kts | 88° |
| 2026-05-08 06:15 | 51.42386 | 12.04263 | 2649 ft | 175 kts | 84° |
| 2026-05-08 06:15 | 51.42479 | 12.06202 | 2389 ft | 172 kts | 85° |
| 2026-05-08 06:16 | 51.42556 | 12.08095 | 2154 ft | 165 kts | 85° |
| 2026-05-08 06:16 | 51.42626 | 12.09811 | 1920 ft | 150 kts | 85° |
| 2026-05-08 06:16 | 51.42697 | 12.11448 | 1717 ft | 146 kts | 85° |
| 2026-05-08 06:16 | 51.42707 | 12.13085 | 1476 ft | 147 kts | 84° |
| 2026-05-08 06:17 | 51.42891 | 12.16245 | 1107 ft | 140 kts | 84° |
| 2026-05-08 06:17 | 51.42950 | 12.17799 | 933 ft | 138 kts | 84° |
| 2026-05-08 06:17 | 51.43026 | 12.19335 | 757 ft | 136 kts | 86° |
| 2026-05-08 06:18 | 51.43088 | 12.20825 | 575 ft | 131 kts | 84° |
| 2026-05-08 06:18 | 51.43155 | 12.22216 | 447 ft | 121 kts | 84° |
| 2026-05-08 06:18 | 51.43213 | 12.23425 | 452 ft | 93 kts | 86° |
| 2026-05-08 06:18 | 51.43251 | 12.24277 | 448 ft | 41 kts | 90° |
| 2026-05-08 06:19 | 51.43186 | 12.24692 | 455 ft | 25 kts | 116° |
| 2026-05-08 06:19 | 51.43109 | 12.24949 | 456 ft | 16 kts | 115° |
| 2026-05-08 06:19 | 51.43103 | 12.24969 | 457 ft | 4 kts | 115° |
| 2026-05-08 06:19 | 51.43057 | 12.25100 | 456 ft | 10 kts | 148° |
| 2026-05-08 06:20 | 51.42909 | 12.25073 | 453 ft | 34 kts | 192° |
| 2026-05-08 06:20 | 51.42617 | 12.24963 | 468 ft | 48 kts | 193° |
| 2026-05-08 06:20 | 51.42303 | 12.24844 | 482 ft | 45 kts | 195° |
| 2026-05-08 06:20 | 51.42026 | 12.24738 | 492 ft | 39 kts | 193° |
| 2026-05-08 06:21 | 51.41754 | 12.24633 | 482 ft | 37 kts | 194° |
| 2026-05-08 06:21 | 51.41656 | 12.24533 | 473 ft | 11 kts | 264° |
| 2026-05-08 06:21 | 51.41645 | 12.24290 | 476 ft | 33 kts | 265° |
| 2026-05-08 06:21 | 51.41622 | 12.23808 | 472 ft | 45 kts | 266° |
| 2026-05-08 06:22 | 51.41604 | 12.23365 | 466 ft | 41 kts | 267° |
| 2026-05-08 06:22 | 51.41651 | 12.22925 | 467 ft | 37 kts | 285° |
| 2026-05-08 06:22 | 51.41719 | 12.22538 | 462 ft | 35 kts | 285° |
| 2026-05-08 06:22 | 51.41776 | 12.22211 | 453 ft | 24 kts | 286° |
| 2026-05-08 06:23 | 51.41809 | 12.22018 | 449 ft | 5 kts | 287° |
| 2026-05-08 06:23 | 51.41830 | 12.21999 | 448 ft | 4 kts | 18° |
| 2026-05-08 06:23 | 51.41874 | 12.22019 | 447 ft | 10 kts | 15° |
| 2026-05-08 06:23 | 51.41910 | 12.22035 | 446 ft | 0 kts | 15° |